sensor_id;sensor_type;location;lat;lon;timestamp;P1;durP1;ratioP1;P2;durP2;ratioP2
43650;SDS011;29247;50.944;5.382;2023-01-04T00:01:41;2.15;;;1.13;;
43650;SDS011;29247;50.944;5.382;2023-01-04T00:04:07;7.40;;;1.45;;
43650;SDS011;29247;50.944;5.382;2023-01-04T00:06:36;3.05;;;0.90;;
43650;SDS011;29247;50.944;5.382;2023-01-04T00:09:01;5.10;;;1.48;;
43650;SDS011;29247;50.944;5.382;2023-01-04T00:11:30;4.03;;;0.93;;
43650;SDS011;29247;50.944;5.382;2023-01-04T00:13:58;5.68;;;1.00;;
43650;SDS011;29247;50.944;5.382;2023-01-04T00:16:24;1.08;;;0.90;;
43650;SDS011;29247;50.944;5.382;2023-01-04T00:18:51;2.30;;;0.90;;
43650;SDS011;29247;50.944;5.382;2023-01-04T00:21:19;3.63;;;1.02;;
43650;SDS011;29247;50.944;5.382;2023-01-04T00:23:47;2.60;;;0.90;;
43650;SDS011;29247;50.944;5.382;2023-01-04T00:26:15;1.45;;;0.90;;
43650;SDS011;29247;50.944;5.382;2023-01-04T00:31:14;5.05;;;1.10;;
43650;SDS011;29247;50.944;5.382;2023-01-04T00:33:42;5.25;;;1.25;;
43650;SDS011;29247;50.944;5.382;2023-01-04T00:36:09;1.15;;;1.00;;
43650;SDS011;29247;50.944;5.382;2023-01-04T00:38:38;3.28;;;1.00;;
43650;SDS011;29247;50.944;5.382;2023-01-04T00:41:08;5.85;;;1.10;;
43650;SDS011;29247;50.944;5.382;2023-01-04T00:43:34;3.75;;;1.20;;
43650;SDS011;29247;50.944;5.382;2023-01-04T00:46:00;3.88;;;1.00;;
43650;SDS011;29247;50.944;5.382;2023-01-04T00:48:27;4.80;;;1.08;;
43650;SDS011;29247;50.944;5.382;2023-01-04T00:50:56;2.42;;;1.05;;
43650;SDS011;29247;50.944;5.382;2023-01-04T00:53:22;1.88;;;1.00;;
43650;SDS011;29247;50.944;5.382;2023-01-04T00:55:49;1.27;;;0.90;;
43650;SDS011;29247;50.944;5.382;2023-01-04T00:58:16;5.20;;;1.77;;
43650;SDS011;29247;50.944;5.382;2023-01-04T01:00:44;4.47;;;1.00;;
43650;SDS011;29247;50.944;5.382;2023-01-04T01:03:10;4.00;;;1.00;;
43650;SDS011;29247;50.944;5.382;2023-01-04T01:05:37;3.70;;;1.50;;
43650;SDS011;29247;50.944;5.382;2023-01-04T01:08:03;1.52;;;0.80;;
43650;SDS011;29247;50.944;5.382;2023-01-04T01:10:48;2.28;;;0.73;;
43650;SDS011;29247;50.944;5.382;2023-01-04T01:13:14;2.42;;;1.00;;
43650;SDS011;29247;50.944;5.382;2023-01-04T01:15:40;1.67;;;0.93;;
43650;SDS011;29247;50.944;5.382;2023-01-04T01:18:06;1.30;;;0.70;;
43650;SDS011;29247;50.944;5.382;2023-01-04T01:20:31;1.45;;;1.17;;
43650;SDS011;29247;50.944;5.382;2023-01-04T01:22:57;4.32;;;0.77;;
43650;SDS011;29247;50.944;5.382;2023-01-04T01:25:25;2.95;;;0.75;;
43650;SDS011;29247;50.944;5.382;2023-01-04T01:27:52;1.42;;;0.90;;
43650;SDS011;29247;50.944;5.382;2023-01-04T01:30:20;1.67;;;0.88;;
43650;SDS011;29247;50.944;5.382;2023-01-04T01:32:46;1.55;;;0.70;;
43650;SDS011;29247;50.944;5.382;2023-01-04T01:35:14;0.95;;;0.70;;
43650;SDS011;29247;50.944;5.382;2023-01-04T01:37:45;5.13;;;0.80;;
43650;SDS011;29247;50.944;5.382;2023-01-04T01:40:13;1.85;;;0.70;;
43650;SDS011;29247;50.944;5.382;2023-01-04T01:42:39;0.63;;;0.60;;
43650;SDS011;29247;50.944;5.382;2023-01-04T01:45:06;1.73;;;0.80;;
43650;SDS011;29247;50.944;5.382;2023-01-04T01:47:48;1.15;;;0.80;;
43650;SDS011;29247;50.944;5.382;2023-01-04T01:50:18;0.85;;;0.70;;
43650;SDS011;29247;50.944;5.382;2023-01-04T01:52:53;1.50;;;0.80;;
43650;SDS011;29247;50.944;5.382;2023-01-04T01:55:29;0.85;;;0.70;;
43650;SDS011;29247;50.944;5.382;2023-01-04T01:57:56;2.22;;;0.93;;
43650;SDS011;29247;50.944;5.382;2023-01-04T02:00:23;2.78;;;0.77;;
43650;SDS011;29247;50.944;5.382;2023-01-04T02:03:01;0.70;;;0.60;;
43650;SDS011;29247;50.944;5.382;2023-01-04T02:05:34;1.30;;;0.70;;
43650;SDS011;29247;50.944;5.382;2023-01-04T02:08:03;1.05;;;1.02;;
43650;SDS011;29247;50.944;5.382;2023-01-04T02:10:30;3.78;;;0.60;;
43650;SDS011;29247;50.944;5.382;2023-01-04T02:13:05;1.77;;;0.77;;
43650;SDS011;29247;50.944;5.382;2023-01-04T02:15:47;0.40;;;0.40;;
43650;SDS011;29247;50.944;5.382;2023-01-04T02:18:47;0.93;;;0.70;;
43650;SDS011;29247;50.944;5.382;2023-01-04T02:24:24;0.75;;;0.52;;
43650;SDS011;29247;50.944;5.382;2023-01-04T02:30:37;1.60;;;0.57;;
43650;SDS011;29247;50.944;5.382;2023-01-04T02:35:28;0.50;;;0.50;;
43650;SDS011;29247;50.944;5.382;2023-01-04T02:43:49;0.70;;;0.50;;
43650;SDS011;29247;50.944;5.382;2023-01-04T02:46:45;0.40;;;0.40;;
43650;SDS011;29247;50.944;5.382;2023-01-04T02:49:15;3.88;;;0.90;;
43650;SDS011;29247;50.944;5.382;2023-01-04T02:51:59;0.40;;;0.40;;
43650;SDS011;29247;50.944;5.382;2023-01-04T02:54:28;0.73;;;0.50;;
43650;SDS011;29247;50.944;5.382;2023-01-04T03:05:46;1.38;;;0.40;;
43650;SDS011;29247;50.944;5.382;2023-01-04T03:08:39;0.40;;;0.40;;
43650;SDS011;29247;50.944;5.382;2023-01-04T03:11:14;0.40;;;0.40;;
43650;SDS011;29247;50.944;5.382;2023-01-04T03:14:18;1.20;;;0.50;;
43650;SDS011;29247;50.944;5.382;2023-01-04T03:16:48;1.60;;;0.50;;
43650;SDS011;29247;50.944;5.382;2023-01-04T03:19:19;0.52;;;0.52;;
43650;SDS011;29247;50.944;5.382;2023-01-04T03:22:08;0.90;;;0.50;;
43650;SDS011;29247;50.944;5.382;2023-01-04T03:24:57;0.50;;;0.50;;
43650;SDS011;29247;50.944;5.382;2023-01-04T03:27:43;0.55;;;0.40;;
43650;SDS011;29247;50.944;5.382;2023-01-04T03:30:32;0.95;;;0.43;;
43650;SDS011;29247;50.944;5.382;2023-01-04T03:33:24;0.43;;;0.40;;
43650;SDS011;29247;50.944;5.382;2023-01-04T03:36:17;0.30;;;0.30;;
43650;SDS011;29247;50.944;5.382;2023-01-04T03:38:45;0.88;;;0.47;;
43650;SDS011;29247;50.944;5.382;2023-01-04T03:45:05;0.40;;;0.40;;
43650;SDS011;29247;50.944;5.382;2023-01-04T03:48:12;1.00;;;0.50;;
43650;SDS011;29247;50.944;5.382;2023-01-04T03:53:47;0.40;;;0.40;;
43650;SDS011;29247;50.944;5.382;2023-01-04T03:56:35;0.60;;;0.43;;
43650;SDS011;29247;50.944;5.382;2023-01-04T03:59:05;0.77;;;0.70;;
43650;SDS011;29247;50.944;5.382;2023-01-04T04:01:35;0.93;;;0.60;;
43650;SDS011;29247;50.944;5.382;2023-01-04T04:04:01;0.90;;;0.60;;
43650;SDS011;29247;50.944;5.382;2023-01-04T04:06:46;0.60;;;0.50;;
43650;SDS011;29247;50.944;5.382;2023-01-04T04:09:30;0.50;;;0.50;;
43650;SDS011;29247;50.944;5.382;2023-01-04T04:11:58;0.50;;;0.50;;
43650;SDS011;29247;50.944;5.382;2023-01-04T04:14:28;0.47;;;0.47;;
43650;SDS011;29247;50.944;5.382;2023-01-04T04:16:56;0.80;;;0.60;;
43650;SDS011;29247;50.944;5.382;2023-01-04T04:19:22;0.55;;;0.50;;
43650;SDS011;29247;50.944;5.382;2023-01-04T04:21:50;0.43;;;0.40;;
43650;SDS011;29247;50.944;5.382;2023-01-04T04:24:17;2.28;;;0.65;;
43650;SDS011;29247;50.944;5.382;2023-01-04T04:26:46;0.50;;;0.50;;
43650;SDS011;29247;50.944;5.382;2023-01-04T04:29:14;1.27;;;0.40;;
43650;SDS011;29247;50.944;5.382;2023-01-04T04:31:40;0.65;;;0.65;;
43650;SDS011;29247;50.944;5.382;2023-01-04T04:34:06;1.58;;;0.45;;
43650;SDS011;29247;50.944;5.382;2023-01-04T04:36:31;0.50;;;0.50;;
43650;SDS011;29247;50.944;5.382;2023-01-04T04:38:57;0.57;;;0.50;;
43650;SDS011;29247;50.944;5.382;2023-01-04T04:41:25;0.55;;;0.50;;
43650;SDS011;29247;50.944;5.382;2023-01-04T04:44:10;5.38;;;0.60;;
43650;SDS011;29247;50.944;5.382;2023-01-04T04:46:37;0.77;;;0.60;;
43650;SDS011;29247;50.944;5.382;2023-01-04T04:49:08;0.65;;;0.60;;
43650;SDS011;29247;50.944;5.382;2023-01-04T04:51:39;1.30;;;0.50;;
43650;SDS011;29247;50.944;5.382;2023-01-04T04:54:06;1.10;;;0.60;;
43650;SDS011;29247;50.944;5.382;2023-01-04T04:56:37;0.75;;;0.60;;
43650;SDS011;29247;50.944;5.382;2023-01-04T04:59:03;0.47;;;0.43;;
43650;SDS011;29247;50.944;5.382;2023-01-04T05:01:28;0.50;;;0.50;;
43650;SDS011;29247;50.944;5.382;2023-01-04T05:03:57;1.17;;;0.38;;
43650;SDS011;29247;50.944;5.382;2023-01-04T05:06:22;1.27;;;0.70;;
43650;SDS011;29247;50.944;5.382;2023-01-04T05:08:48;0.50;;;0.50;;
43650;SDS011;29247;50.944;5.382;2023-01-04T05:11:16;0.50;;;0.50;;
43650;SDS011;29247;50.944;5.382;2023-01-04T05:14:02;0.82;;;0.60;;
43650;SDS011;29247;50.944;5.382;2023-01-04T05:16:30;0.82;;;0.60;;
43650;SDS011;29247;50.944;5.382;2023-01-04T05:18:58;0.80;;;0.50;;
43650;SDS011;29247;50.944;5.382;2023-01-04T05:21:26;1.95;;;0.52;;
43650;SDS011;29247;50.944;5.382;2023-01-04T05:23:52;0.70;;;0.60;;
43650;SDS011;29247;50.944;5.382;2023-01-04T05:26:18;1.40;;;0.55;;
43650;SDS011;29247;50.944;5.382;2023-01-04T05:28:45;1.20;;;0.50;;
43650;SDS011;29247;50.944;5.382;2023-01-04T05:31:11;2.65;;;0.60;;
43650;SDS011;29247;50.944;5.382;2023-01-04T05:33:39;0.98;;;0.57;;
43650;SDS011;29247;50.944;5.382;2023-01-04T05:36:07;0.60;;;0.60;;
43650;SDS011;29247;50.944;5.382;2023-01-04T05:38:35;0.50;;;0.50;;
43650;SDS011;29247;50.944;5.382;2023-01-04T05:41:07;0.52;;;0.40;;
43650;SDS011;29247;50.944;5.382;2023-01-04T05:43:52;0.45;;;0.45;;
43650;SDS011;29247;50.944;5.382;2023-01-04T05:46:18;0.70;;;0.50;;
43650;SDS011;29247;50.944;5.382;2023-01-04T05:48:46;0.55;;;0.50;;
43650;SDS011;29247;50.944;5.382;2023-01-04T05:51:11;1.20;;;0.60;;
43650;SDS011;29247;50.944;5.382;2023-01-04T05:53:37;0.70;;;0.70;;
43650;SDS011;29247;50.944;5.382;2023-01-04T05:56:08;0.60;;;0.60;;
43650;SDS011;29247;50.944;5.382;2023-01-04T05:58:33;0.50;;;0.50;;
43650;SDS011;29247;50.944;5.382;2023-01-04T06:00:59;0.60;;;0.50;;
43650;SDS011;29247;50.944;5.382;2023-01-04T06:03:25;0.73;;;0.60;;
43650;SDS011;29247;50.944;5.382;2023-01-04T06:05:54;0.70;;;0.70;;
43650;SDS011;29247;50.944;5.382;2023-01-04T06:08:22;0.55;;;0.55;;
43650;SDS011;29247;50.944;5.382;2023-01-04T06:10:52;0.70;;;0.57;;
43650;SDS011;29247;50.944;5.382;2023-01-04T06:13:18;0.57;;;0.57;;
43650;SDS011;29247;50.944;5.382;2023-01-04T06:15:44;1.20;;;0.60;;
43650;SDS011;29247;50.944;5.382;2023-01-04T06:18:12;0.80;;;0.77;;
43650;SDS011;29247;50.944;5.382;2023-01-04T06:20:38;1.75;;;0.70;;
43650;SDS011;29247;50.944;5.382;2023-01-04T06:23:04;0.60;;;0.60;;
43650;SDS011;29247;50.944;5.382;2023-01-04T06:25:29;0.65;;;0.65;;
43650;SDS011;29247;50.944;5.382;2023-01-04T06:27:58;2.60;;;0.70;;
43650;SDS011;29247;50.944;5.382;2023-01-04T06:30:24;3.38;;;0.60;;
43650;SDS011;29247;50.944;5.382;2023-01-04T06:32:53;0.65;;;0.50;;
43650;SDS011;29247;50.944;5.382;2023-01-04T06:35:21;1.15;;;0.60;;
43650;SDS011;29247;50.944;5.382;2023-01-04T06:37:49;0.57;;;0.57;;
43650;SDS011;29247;50.944;5.382;2023-01-04T06:40:15;2.58;;;0.70;;
43650;SDS011;29247;50.944;5.382;2023-01-04T06:42:43;3.50;;;0.57;;
43650;SDS011;29247;50.944;5.382;2023-01-04T06:45:14;2.28;;;0.63;;
43650;SDS011;29247;50.944;5.382;2023-01-04T06:47:43;2.20;;;0.70;;
43650;SDS011;29247;50.944;5.382;2023-01-04T06:50:09;0.63;;;0.63;;
43650;SDS011;29247;50.944;5.382;2023-01-04T06:52:40;1.77;;;0.52;;
43650;SDS011;29247;50.944;5.382;2023-01-04T06:55:06;1.98;;;0.77;;
43650;SDS011;29247;50.944;5.382;2023-01-04T06:57:34;1.00;;;0.60;;
43650;SDS011;29247;50.944;5.382;2023-01-04T07:00:02;1.23;;;0.60;;
43650;SDS011;29247;50.944;5.382;2023-01-04T07:02:31;2.42;;;0.80;;
43650;SDS011;29247;50.944;5.382;2023-01-04T07:05:01;0.88;;;0.70;;
43650;SDS011;29247;50.944;5.382;2023-01-04T07:10:01;1.10;;;0.73;;
43650;SDS011;29247;50.944;5.382;2023-01-04T07:12:27;1.15;;;0.75;;
43650;SDS011;29247;50.944;5.382;2023-01-04T07:14:56;1.83;;;0.70;;
43650;SDS011;29247;50.944;5.382;2023-01-04T07:17:22;0.85;;;0.70;;
43650;SDS011;29247;50.944;5.382;2023-01-04T07:19:47;0.70;;;0.60;;
43650;SDS011;29247;50.944;5.382;2023-01-04T07:22:13;0.70;;;0.70;;
43650;SDS011;29247;50.944;5.382;2023-01-04T07:24:39;1.00;;;0.73;;
43650;SDS011;29247;50.944;5.382;2023-01-04T07:27:05;1.60;;;0.80;;
43650;SDS011;29247;50.944;5.382;2023-01-04T07:29:31;0.70;;;0.70;;
43650;SDS011;29247;50.944;5.382;2023-01-04T07:31:57;0.95;;;0.70;;
43650;SDS011;29247;50.944;5.382;2023-01-04T07:34:24;0.98;;;0.73;;
43650;SDS011;29247;50.944;5.382;2023-01-04T07:36:52;2.20;;;0.90;;
43650;SDS011;29247;50.944;5.382;2023-01-04T07:39:19;0.90;;;0.52;;
43650;SDS011;29247;50.944;5.382;2023-01-04T07:41:45;1.83;;;0.60;;
43650;SDS011;29247;50.944;5.382;2023-01-04T07:44:12;1.52;;;0.60;;
43650;SDS011;29247;50.944;5.382;2023-01-04T07:46:42;3.00;;;0.60;;
43650;SDS011;29247;50.944;5.382;2023-01-04T07:49:13;1.33;;;0.85;;
43650;SDS011;29247;50.944;5.382;2023-01-04T07:51:40;2.00;;;0.73;;
43650;SDS011;29247;50.944;5.382;2023-01-04T07:54:09;1.25;;;0.70;;
43650;SDS011;29247;50.944;5.382;2023-01-04T07:56:35;0.80;;;0.80;;
43650;SDS011;29247;50.944;5.382;2023-01-04T07:59:01;1.42;;;0.80;;
43650;SDS011;29247;50.944;5.382;2023-01-04T08:01:32;1.98;;;0.63;;
43650;SDS011;29247;50.944;5.382;2023-01-04T08:04:05;0.60;;;0.60;;
43650;SDS011;29247;50.944;5.382;2023-01-04T08:06:31;0.80;;;0.60;;
43650;SDS011;29247;50.944;5.382;2023-01-04T08:08:58;1.42;;;0.73;;
43650;SDS011;29247;50.944;5.382;2023-01-04T08:11:29;0.60;;;0.60;;
43650;SDS011;29247;50.944;5.382;2023-01-04T08:13:58;1.67;;;0.70;;
43650;SDS011;29247;50.944;5.382;2023-01-04T08:16:25;3.38;;;0.75;;
43650;SDS011;29247;50.944;5.382;2023-01-04T08:18:56;1.73;;;0.50;;
43650;SDS011;29247;50.944;5.382;2023-01-04T08:21:27;0.80;;;0.55;;
43650;SDS011;29247;50.944;5.382;2023-01-04T08:23:57;1.40;;;0.63;;
43650;SDS011;29247;50.944;5.382;2023-01-04T08:26:23;1.95;;;0.65;;
43650;SDS011;29247;50.944;5.382;2023-01-04T08:28:49;0.90;;;0.63;;
43650;SDS011;29247;50.944;5.382;2023-01-04T08:31:17;0.80;;;0.68;;
43650;SDS011;29247;50.944;5.382;2023-01-04T08:33:49;0.95;;;0.68;;
43650;SDS011;29247;50.944;5.382;2023-01-04T08:38:53;1.52;;;0.68;;
43650;SDS011;29247;50.944;5.382;2023-01-04T08:41:22;1.30;;;0.63;;
43650;SDS011;29247;50.944;5.382;2023-01-04T08:43:48;2.38;;;0.60;;
43650;SDS011;29247;50.944;5.382;2023-01-04T08:46:16;0.60;;;0.60;;
43650;SDS011;29247;50.944;5.382;2023-01-04T08:48:42;0.93;;;0.90;;
43650;SDS011;29247;50.944;5.382;2023-01-04T08:51:15;1.15;;;0.60;;
43650;SDS011;29247;50.944;5.382;2023-01-04T08:53:44;1.02;;;0.70;;
43650;SDS011;29247;50.944;5.382;2023-01-04T08:58:40;2.13;;;0.60;;
43650;SDS011;29247;50.944;5.382;2023-01-04T09:01:07;1.00;;;0.60;;
43650;SDS011;29247;50.944;5.382;2023-01-04T09:03:35;1.08;;;0.60;;
43650;SDS011;29247;50.944;5.382;2023-01-04T09:06:12;1.05;;;0.50;;
43650;SDS011;29247;50.944;5.382;2023-01-04T09:08:39;1.20;;;0.90;;
43650;SDS011;29247;50.944;5.382;2023-01-04T09:11:09;0.80;;;0.60;;
43650;SDS011;29247;50.944;5.382;2023-01-04T09:13:37;2.78;;;0.70;;
43650;SDS011;29247;50.944;5.382;2023-01-04T09:16:07;1.88;;;0.52;;
43650;SDS011;29247;50.944;5.382;2023-01-04T09:18:35;1.85;;;0.50;;
43650;SDS011;29247;50.944;5.382;2023-01-04T09:21:04;0.88;;;0.40;;
43650;SDS011;29247;50.944;5.382;2023-01-04T09:23:34;0.95;;;0.70;;
43650;SDS011;29247;50.944;5.382;2023-01-04T09:26:04;0.90;;;0.60;;
43650;SDS011;29247;50.944;5.382;2023-01-04T09:28:31;2.83;;;0.90;;
43650;SDS011;29247;50.944;5.382;2023-01-04T09:30:57;2.05;;;0.70;;
43650;SDS011;29247;50.944;5.382;2023-01-04T09:33:28;0.63;;;0.60;;
43650;SDS011;29247;50.944;5.382;2023-01-04T09:35:53;1.75;;;0.50;;
43650;SDS011;29247;50.944;5.382;2023-01-04T09:38:24;2.17;;;0.50;;
43650;SDS011;29247;50.944;5.382;2023-01-04T09:40:55;1.65;;;0.63;;
43650;SDS011;29247;50.944;5.382;2023-01-04T09:43:52;0.65;;;0.57;;
43650;SDS011;29247;50.944;5.382;2023-01-04T09:51:54;1.10;;;0.70;;
43650;SDS011;29247;50.944;5.382;2023-01-04T09:54:35;2.85;;;0.63;;
43650;SDS011;29247;50.944;5.382;2023-01-04T09:57:09;0.85;;;0.50;;
43650;SDS011;29247;50.944;5.382;2023-01-04T09:59:45;2.65;;;0.98;;
43650;SDS011;29247;50.944;5.382;2023-01-04T10:02:16;2.13;;;0.73;;
43650;SDS011;29247;50.944;5.382;2023-01-04T10:04:55;2.60;;;0.60;;
43650;SDS011;29247;50.944;5.382;2023-01-04T10:07:31;2.10;;;0.70;;
43650;SDS011;29247;50.944;5.382;2023-01-04T10:10:00;1.95;;;0.80;;
43650;SDS011;29247;50.944;5.382;2023-01-04T10:12:44;1.40;;;0.73;;
43650;SDS011;29247;50.944;5.382;2023-01-04T10:15:30;0.93;;;0.70;;
43650;SDS011;29247;50.944;5.382;2023-01-04T10:18:13;1.45;;;0.90;;
43650;SDS011;29247;50.944;5.382;2023-01-04T10:27:03;4.90;;;0.93;;
43650;SDS011;29247;50.944;5.382;2023-01-04T10:29:39;1.73;;;0.82;;
43650;SDS011;29247;50.944;5.382;2023-01-04T10:34:57;4.93;;;0.85;;
43650;SDS011;29247;50.944;5.382;2023-01-04T10:37:24;2.03;;;0.57;;
43650;SDS011;29247;50.944;5.382;2023-01-04T10:39:57;5.82;;;0.88;;
43650;SDS011;29247;50.944;5.382;2023-01-04T10:45:39;3.35;;;1.00;;
43650;SDS011;29247;50.944;5.382;2023-01-04T10:48:28;2.13;;;0.65;;
43650;SDS011;29247;50.944;5.382;2023-01-04T10:51:03;3.97;;;0.80;;
43650;SDS011;29247;50.944;5.382;2023-01-04T10:59:08;2.22;;;0.60;;
43650;SDS011;29247;50.944;5.382;2023-01-04T11:01:52;0.60;;;0.60;;
43650;SDS011;29247;50.944;5.382;2023-01-04T11:09:31;2.65;;;0.80;;
43650;SDS011;29247;50.944;5.382;2023-01-04T11:12:20;1.77;;;0.70;;
43650;SDS011;29247;50.944;5.382;2023-01-04T11:14:49;1.95;;;0.63;;
43650;SDS011;29247;50.944;5.382;2023-01-04T11:17:15;0.88;;;0.88;;
43650;SDS011;29247;50.944;5.382;2023-01-04T11:19:42;0.70;;;0.70;;
43650;SDS011;29247;50.944;5.382;2023-01-04T11:22:14;0.55;;;0.50;;
43650;SDS011;29247;50.944;5.382;2023-01-04T11:24:50;1.77;;;0.63;;
43650;SDS011;29247;50.944;5.382;2023-01-04T11:27:21;0.90;;;0.90;;
43650;SDS011;29247;50.944;5.382;2023-01-04T11:30:29;1.85;;;0.70;;
43650;SDS011;29247;50.944;5.382;2023-01-04T11:35:38;0.65;;;0.60;;
43650;SDS011;29247;50.944;5.382;2023-01-04T11:38:17;1.15;;;0.57;;
43650;SDS011;29247;50.944;5.382;2023-01-04T11:41:20;1.07;;;0.97;;
43650;SDS011;29247;50.944;5.382;2023-01-04T11:43:40;1.02;;;0.60;;
43650;SDS011;29247;50.944;5.382;2023-01-04T11:46:24;0.55;;;0.55;;
43650;SDS011;29247;50.944;5.382;2023-01-04T11:48:52;1.50;;;0.70;;
43650;SDS011;29247;50.944;5.382;2023-01-04T11:54:16;2.85;;;0.60;;
43650;SDS011;29247;50.944;5.382;2023-01-04T11:56:39;1.52;;;0.60;;
43650;SDS011;29247;50.944;5.382;2023-01-04T11:59:23;1.92;;;0.70;;
43650;SDS011;29247;50.944;5.382;2023-01-04T12:02:08;0.63;;;0.63;;
43650;SDS011;29247;50.944;5.382;2023-01-04T12:04:49;1.23;;;0.50;;
43650;SDS011;29247;50.944;5.382;2023-01-04T12:09:54;0.55;;;0.55;;
43650;SDS011;29247;50.944;5.382;2023-01-04T12:12:23;0.60;;;0.60;;
43650;SDS011;29247;50.944;5.382;2023-01-04T12:14:56;4.00;;;0.60;;
43650;SDS011;29247;50.944;5.382;2023-01-04T12:20:17;2.53;;;0.70;;
43650;SDS011;29247;50.944;5.382;2023-01-04T12:22:51;1.13;;;0.57;;
43650;SDS011;29247;50.944;5.382;2023-01-04T12:25:31;1.42;;;0.70;;
43650;SDS011;29247;50.944;5.382;2023-01-04T12:27:58;1.48;;;0.70;;
43650;SDS011;29247;50.944;5.382;2023-01-04T12:30:39;1.70;;;0.68;;
43650;SDS011;29247;50.944;5.382;2023-01-04T12:36:17;0.82;;;0.60;;
43650;SDS011;29247;50.944;5.382;2023-01-04T12:44:02;0.60;;;0.50;;
43650;SDS011;29247;50.944;5.382;2023-01-04T12:47:04;0.73;;;0.47;;
43650;SDS011;29247;50.944;5.382;2023-01-04T12:50:15;1.48;;;0.70;;
43650;SDS011;29247;50.944;5.382;2023-01-04T12:52:48;1.05;;;0.60;;
43650;SDS011;29247;50.944;5.382;2023-01-04T12:57:49;1.17;;;0.52;;
43650;SDS011;29247;50.944;5.382;2023-01-04T13:00:16;1.52;;;0.70;;
43650;SDS011;29247;50.944;5.382;2023-01-04T13:02:42;2.72;;;0.60;;
43650;SDS011;29247;50.944;5.382;2023-01-04T13:07:47;0.95;;;0.60;;
43650;SDS011;29247;50.944;5.382;2023-01-04T13:15:36;0.47;;;0.47;;
43650;SDS011;29247;50.944;5.382;2023-01-04T13:21:15;0.98;;;0.60;;
43650;SDS011;29247;50.944;5.382;2023-01-04T13:23:51;0.65;;;0.65;;
43650;SDS011;29247;50.944;5.382;2023-01-04T13:26:26;1.40;;;0.70;;
43650;SDS011;29247;50.944;5.382;2023-01-04T13:29:06;1.02;;;0.60;;
43650;SDS011;29247;50.944;5.382;2023-01-04T13:37:01;0.65;;;0.60;;
43650;SDS011;29247;50.944;5.382;2023-01-04T13:39:47;0.60;;;0.60;;
43650;SDS011;29247;50.944;5.382;2023-01-04T13:45:07;0.77;;;0.60;;
43650;SDS011;29247;50.944;5.382;2023-01-04T13:47:57;2.22;;;0.60;;
43650;SDS011;29247;50.944;5.382;2023-01-04T13:50:33;2.00;;;0.60;;
43650;SDS011;29247;50.944;5.382;2023-01-04T13:53:15;1.67;;;0.60;;
43650;SDS011;29247;50.944;5.382;2023-01-04T13:55:51;0.75;;;0.60;;
43650;SDS011;29247;50.944;5.382;2023-01-04T13:58:27;0.63;;;0.60;;
43650;SDS011;29247;50.944;5.382;2023-01-04T14:00:56;0.50;;;0.50;;
43650;SDS011;29247;50.944;5.382;2023-01-04T14:03:45;0.50;;;0.50;;
43650;SDS011;29247;50.944;5.382;2023-01-04T14:06:13;2.05;;;0.52;;
43650;SDS011;29247;50.944;5.382;2023-01-04T14:08:55;0.40;;;0.40;;
43650;SDS011;29247;50.944;5.382;2023-01-04T14:19:49;0.60;;;0.60;;
43650;SDS011;29247;50.944;5.382;2023-01-04T14:24:46;0.40;;;0.40;;
43650;SDS011;29247;50.944;5.382;2023-01-04T14:32:51;1.17;;;0.50;;
43650;SDS011;29247;50.944;5.382;2023-01-04T14:35:28;0.77;;;0.40;;
43650;SDS011;29247;50.944;5.382;2023-01-04T14:38:02;0.75;;;0.40;;
43650;SDS011;29247;50.944;5.382;2023-01-04T14:40:33;1.08;;;0.60;;
43650;SDS011;29247;50.944;5.382;2023-01-04T14:43:01;1.02;;;0.43;;
43650;SDS011;29247;50.944;5.382;2023-01-04T14:45:47;1.50;;;0.60;;
43650;SDS011;29247;50.944;5.382;2023-01-04T14:48:13;0.40;;;0.40;;
43650;SDS011;29247;50.944;5.382;2023-01-04T14:50:40;1.38;;;0.50;;
43650;SDS011;29247;50.944;5.382;2023-01-04T14:53:07;0.50;;;0.50;;
43650;SDS011;29247;50.944;5.382;2023-01-04T14:55:33;0.40;;;0.40;;
43650;SDS011;29247;50.944;5.382;2023-01-04T14:57:59;0.55;;;0.40;;
43650;SDS011;29247;50.944;5.382;2023-01-04T15:00:25;0.88;;;0.40;;
43650;SDS011;29247;50.944;5.382;2023-01-04T15:02:51;1.63;;;0.45;;
43650;SDS011;29247;50.944;5.382;2023-01-04T15:05:20;0.40;;;0.40;;
43650;SDS011;29247;50.944;5.382;2023-01-04T15:07:47;0.77;;;0.40;;
43650;SDS011;29247;50.944;5.382;2023-01-04T15:10:20;0.77;;;0.50;;
43650;SDS011;29247;50.944;5.382;2023-01-04T15:12:51;0.63;;;0.40;;
43650;SDS011;29247;50.944;5.382;2023-01-04T15:15:17;0.43;;;0.40;;
43650;SDS011;29247;50.944;5.382;2023-01-04T15:17:46;0.50;;;0.50;;
43650;SDS011;29247;50.944;5.382;2023-01-04T15:20:12;0.75;;;0.55;;
43650;SDS011;29247;50.944;5.382;2023-01-04T15:22:41;0.60;;;0.60;;
43650;SDS011;29247;50.944;5.382;2023-01-04T15:25:08;1.48;;;0.60;;
43650;SDS011;29247;50.944;5.382;2023-01-04T15:27:36;0.68;;;0.60;;
43650;SDS011;29247;50.944;5.382;2023-01-04T15:30:05;1.33;;;0.50;;
43650;SDS011;29247;50.944;5.382;2023-01-04T15:32:31;1.05;;;0.50;;
43650;SDS011;29247;50.944;5.382;2023-01-04T15:34:59;1.00;;;0.57;;
43650;SDS011;29247;50.944;5.382;2023-01-04T15:37:25;1.45;;;0.60;;
43650;SDS011;29247;50.944;5.382;2023-01-04T15:39:51;0.52;;;0.52;;
43650;SDS011;29247;50.944;5.382;2023-01-04T15:42:16;0.50;;;0.50;;
43650;SDS011;29247;50.944;5.382;2023-01-04T15:45:01;3.92;;;0.70;;
43650;SDS011;29247;50.944;5.382;2023-01-04T15:47:29;0.98;;;0.60;;
43650;SDS011;29247;50.944;5.382;2023-01-04T15:49:56;1.95;;;0.40;;
43650;SDS011;29247;50.944;5.382;2023-01-04T15:52:21;0.60;;;0.50;;
43650;SDS011;29247;50.944;5.382;2023-01-04T15:54:49;1.70;;;0.50;;
43650;SDS011;29247;50.944;5.382;2023-01-04T15:57:15;0.95;;;0.50;;
43650;SDS011;29247;50.944;5.382;2023-01-04T15:59:41;3.03;;;0.60;;
43650;SDS011;29247;50.944;5.382;2023-01-04T16:02:10;1.10;;;0.60;;
43650;SDS011;29247;50.944;5.382;2023-01-04T16:04:36;2.78;;;0.60;;
43650;SDS011;29247;50.944;5.382;2023-01-04T16:07:02;2.50;;;0.75;;
43650;SDS011;29247;50.944;5.382;2023-01-04T16:09:28;1.67;;;0.70;;
43650;SDS011;29247;50.944;5.382;2023-01-04T16:11:56;2.50;;;0.80;;
43650;SDS011;29247;50.944;5.382;2023-01-04T16:14:40;3.15;;;0.80;;
43650;SDS011;29247;50.944;5.382;2023-01-04T16:17:09;1.52;;;0.77;;
43650;SDS011;29247;50.944;5.382;2023-01-04T16:19:35;3.35;;;0.90;;
43650;SDS011;29247;50.944;5.382;2023-01-04T16:22:00;6.05;;;2.17;;
43650;SDS011;29247;50.944;5.382;2023-01-04T16:24:29;9.40;;;1.13;;
43650;SDS011;29247;50.944;5.382;2023-01-04T16:26:55;6.10;;;1.55;;
43650;SDS011;29247;50.944;5.382;2023-01-04T16:29:23;10.30;;;1.38;;
43650;SDS011;29247;50.944;5.382;2023-01-04T16:31:49;6.10;;;1.10;;
43650;SDS011;29247;50.944;5.382;2023-01-04T16:34:15;7.85;;;1.42;;
43650;SDS011;29247;50.944;5.382;2023-01-04T16:36:41;10.70;;;1.40;;
43650;SDS011;29247;50.944;5.382;2023-01-04T16:39:07;10.48;;;1.67;;
43650;SDS011;29247;50.944;5.382;2023-01-04T16:41:32;8.43;;;1.27;;
43650;SDS011;29247;50.944;5.382;2023-01-04T16:43:59;8.32;;;1.88;;
43650;SDS011;29247;50.944;5.382;2023-01-04T16:46:30;9.53;;;1.67;;
43650;SDS011;29247;50.944;5.382;2023-01-04T16:49:04;9.05;;;1.50;;
43650;SDS011;29247;50.944;5.382;2023-01-04T16:51:34;15.57;;;1.77;;
43650;SDS011;29247;50.944;5.382;2023-01-04T16:54:02;9.48;;;1.83;;
43650;SDS011;29247;50.944;5.382;2023-01-04T16:56:32;9.18;;;1.40;;
43650;SDS011;29247;50.944;5.382;2023-01-04T16:58:58;15.20;;;2.20;;
43650;SDS011;29247;50.944;5.382;2023-01-04T17:01:26;14.45;;;1.77;;
43650;SDS011;29247;50.944;5.382;2023-01-04T17:04:00;12.55;;;1.70;;
43650;SDS011;29247;50.944;5.382;2023-01-04T17:06:27;10.52;;;1.50;;
43650;SDS011;29247;50.944;5.382;2023-01-04T17:09:00;13.48;;;1.85;;
43650;SDS011;29247;50.944;5.382;2023-01-04T17:11:30;12.43;;;1.88;;
43650;SDS011;29247;50.944;5.382;2023-01-04T17:14:00;9.48;;;1.80;;
43650;SDS011;29247;50.944;5.382;2023-01-04T17:16:27;8.30;;;2.03;;
43650;SDS011;29247;50.944;5.382;2023-01-04T17:18:55;11.07;;;1.85;;